Tim S. Dool — VGPY — position and weather

sailwx.info

Track history (hours):
 
Tides and Currents Weather Stations Pressure Air Temp Water Temp Dewpoint Dewpoint Depression Visibility Wind Speed Wind Dir Waves Ship Positions

Tim S. Dool

Last reported at 2018-Jun-24 05:00 UTC. Time now 2018-Jun-25 00:23 UTC.
Position N 50°00' W 066°48'.

Length 223 m; draft 8.1 m.

Type: Cargo ship. MMSI: 316001696.

Barometer 1003.0 mb
Air temperature 16.0 ° C
Visibility: greater than 10.8 NM
Dewpoint 12.0 ° C

Date/timePositionNaut miles runAvg speedWind from/ knotsBaromVisibWave heightAir tempDewpointWater temp
2018-Jun-24 05:00N 50°00' W 066°48'0 0.0 1003.010.8 16.012.0
2018-Jun-23 17:00N 50°00' W 066°48'4 0.3 280 / 131008.010.8 17.012.0
2018-Jun-23 04:00N 50°00' W 066°54'88 2.5 240 / 151008.010.8 17.012.0
2018-Jun-21 17:00N 48°54' W 068°24'16511.8 240 / 151008.010.8 15.0 9.0
2018-Jun-21 02:57N 46°50' W 071°08'9012.2
2018-Jun-20 19:35N 46°05' W 073°00'213.9
2018-Jun-20 19:28N 46°04' W 073°02'511.6
2018-Jun-20 19:00N 46°03' W 073°09'612.3
2018-Jun-20 18:31N 45°57' W 073°13'612.4
2018-Jun-20 18:01N 45°51' W 073°16'713.1
2018-Jun-20 17:30N 45°46' W 073°22'612.7
2018-Jun-20 17:01N 45°41' W 073°27'610.5
2018-Jun-20 16:29N 45°36' W 073°30'6 8.1
2018-Jun-20 15:47N 45°30' W 073°31'1 2.2
2018-Jun-20 15:31N 45°30' W 073°31'0 0.2
2018-Jun-20 15:01N 45°29' W 073°31'1 2.3
2018-Jun-20 14:31N 45°28' W 073°30'2 4.8
2018-Jun-20 14:00N 45°26' W 073°30'2 4.9
2018-Jun-20 13:30N 45°24' W 073°33'1 1.8
2018-Jun-20 13:01N 45°24' W 073°34'0 0.7
2018-Jun-20 12:30N 45°24' W 073°34'2 3.1
2018-Jun-20 11:59N 45°24' W 073°37'2 4.7
2018-Jun-20 11:29N 45°25' W 073°40'3 5.5
2018-Jun-20 11:00N 45°24' W 073°44'5 9.4
2018-Jun-20 10:30N 45°22' W 073°50'5 9.9
2018-Jun-20 10:01N 45°19' W 073°55'0 0.4
2018-Jun-20 09:31N 45°19' W 073°55'1 1.5
2018-Jun-20 09:00N 45°18' W 073°56'0 0.2
2018-Jun-20 08:31N 45°18' W 073°56'1 1.8
2018-Jun-20 08:01N 45°17' W 073°56'2 4.5
2018-Jun-20 07:30N 45°15' W 073°58'6 8.4
2018-Jun-20 06:44N 45°14' W 074°07'410.0
2018-Jun-20 06:19N 45°14' W 074°13'412.2
2018-Jun-20 06:00N 45°13' W 074°18'612.6
2018-Jun-20 05:30N 45°08' W 074°24'5 9.2
2018-Jun-20 05:00N 45°06' W 074°30'226 9.4
2018-Jun-19 05:00N 43°18' W 079°06'   350 / 121014.010.8 22.025.0
2018-Jun-17 00:35N 45°27' W 083°15'112.4
2018-Jun-17 00:30N 45°28' W 083°16'612.4
2018-Jun-17 00:00N 45°33' W 083°22'  
Track history (hours):
 
Tides and Currents Weather Stations Pressure Air Temp Water Temp Dewpoint Dewpoint Depression Visibility Wind Speed Wind Dir Waves Ship Positions

Tim S. Dool

Last reported at 2018-Jun-24 05:00 UTC. Time now 2018-Jun-25 00:23 UTC.
Position N 50°00' W 066°48'.

Length 223 m; draft 8.1 m.

Type: Cargo ship. MMSI: 316001696.

Barometer 1003.0 mb
Air temperature 16.0 ° C
Visibility: greater than 10.8 NM
Dewpoint 12.0 ° C

Date/timePositionNaut miles runAvg speedWind from/ knotsBaromVisibWave heightAir tempDewpointWater temp
2018-Jun-24 05:00N 50°00' W 066°48'0 0.0 1003.010.8 16.012.0
2018-Jun-23 17:00N 50°00' W 066°48'4 0.3 280 / 131008.010.8 17.012.0
2018-Jun-23 04:00N 50°00' W 066°54'88 2.5 240 / 151008.010.8 17.012.0
2018-Jun-21 17:00N 48°54' W 068°24'16511.8 240 / 151008.010.8 15.0 9.0
2018-Jun-21 02:57N 46°50' W 071°08'9012.2
2018-Jun-20 19:35N 46°05' W 073°00'213.9
2018-Jun-20 19:28N 46°04' W 073°02'511.6
2018-Jun-20 19:00N 46°03' W 073°09'612.3
2018-Jun-20 18:31N 45°57' W 073°13'612.4
2018-Jun-20 18:01N 45°51' W 073°16'713.1
2018-Jun-20 17:30N 45°46' W 073°22'612.7
2018-Jun-20 17:01N 45°41' W 073°27'610.5
2018-Jun-20 16:29N 45°36' W 073°30'6 8.1
2018-Jun-20 15:47N 45°30' W 073°31'1 2.2
2018-Jun-20 15:31N 45°30' W 073°31'0 0.2
2018-Jun-20 15:01N 45°29' W 073°31'1 2.3
2018-Jun-20 14:31N 45°28' W 073°30'2 4.8
2018-Jun-20 14:00N 45°26' W 073°30'2 4.9
2018-Jun-20 13:30N 45°24' W 073°33'1 1.8
2018-Jun-20 13:01N 45°24' W 073°34'0 0.7
2018-Jun-20 12:30N 45°24' W 073°34'2 3.1
2018-Jun-20 11:59N 45°24' W 073°37'2 4.7
2018-Jun-20 11:29N 45°25' W 073°40'3 5.5
2018-Jun-20 11:00N 45°24' W 073°44'5 9.4
2018-Jun-20 10:30N 45°22' W 073°50'5 9.9
2018-Jun-20 10:01N 45°19' W 073°55'0 0.4
2018-Jun-20 09:31N 45°19' W 073°55'1 1.5
2018-Jun-20 09:00N 45°18' W 073°56'0 0.2
2018-Jun-20 08:31N 45°18' W 073°56'1 1.8
2018-Jun-20 08:01N 45°17' W 073°56'2 4.5
2018-Jun-20 07:30N 45°15' W 073°58'6 8.4
2018-Jun-20 06:44N 45°14' W 074°07'410.0
2018-Jun-20 06:19N 45°14' W 074°13'412.2
2018-Jun-20 06:00N 45°13' W 074°18'612.6
2018-Jun-20 05:30N 45°08' W 074°24'5 9.2
2018-Jun-20 05:00N 45°06' W 074°30'226 9.4
2018-Jun-19 05:00N 43°18' W 079°06'   350 / 121014.010.8 22.025.0
2018-Jun-17 00:35N 45°27' W 083°15'112.4
2018-Jun-17 00:30N 45°28' W 083°16'612.4
2018-Jun-17 00:00N 45°33' W 083°22'  

Dump ship's entire track history